Time;durP1;ratioP1;P1;durP2;ratioP2;P2;SDS_P1;SDS_P2;PMS_P1;PMS_P2;Temp;Humidity;BMP_temperature;BMP_pressure;BME280_temperature;BME280_humidity;BME280_pressure;Samples;Min_cycle;Max_cycle;Signal;HPM_P1;HPM_P2
2021/11/18 00:01:18;;;;;;;;;;;;;;;;;;5063818;28;19932;-64
2021/11/18 00:03:48;;;;;;;;;;;;;;;;;;5062141;28;19925;-64
2021/11/18 00:06:18;;;;;;;;;;;;;;;;;;5066273;28;19931;-64
2021/11/18 00:08:49;;;;;;;;;;;;;;;;;;5063115;28;20440;-64
2021/11/18 00:11:20;;;;;;;;;;;;;;;;;;5067585;28;20022;-65
2021/11/18 00:13:52;;;;;;;;;;;;;;;;;;5068721;28;20267;-65
2021/11/18 00:39:01;;;;;;;;;;;;;;;;;;5058501;28;19951;-66
2021/11/18 00:41:32;;;;;;;;;;;;;;;;;;5068049;28;19983;-66
2021/11/18 00:44:01;;;;;;;;;;;;;;;;;;5057672;28;19932;-67
2021/11/18 00:46:33;;;;;;;;;;;;;;;;;;5069500;28;19924;-65
2021/11/18 00:49:06;;;;;;;;;;;;;;;;;;5055801;28;19936;-66
2021/11/18 00:51:50;;;;;;;;;;;;;;;;;;5071786;28;19964;-66
2021/11/18 00:54:21;;;;;;;;;;;;;;;;;;5065107;28;19981;-64
2021/11/18 00:56:49;;;;;;;;;;;;;;;;;;5066757;28;19924;-65
2021/11/18 00:59:20;;;;;;;;;;;;;;;;;;5062960;28;19924;-66
2021/11/18 01:01:52;;;;;;;;;;;;;;;;;;5068854;28;19925;-65
2021/11/18 01:04:21;;;;;;;;;;;;;;;;;;5062758;28;20578;-66
2021/11/18 01:06:50;;;;;;;;;;;;;;;;;;5066684;28;19928;-66
2021/11/18 01:09:18;;;;;;;;;;;;;;;;;;5061909;28;19928;-66
2021/11/18 01:11:47;;;;;;;;;;;;;;;;;;5069860;28;20290;-67
2021/11/18 01:14:18;;;;;;;;;;;;;;;;;;5059721;28;19935;-67
2021/11/18 01:16:49;;;;;;;;;;;;;;;;;;5064861;28;19924;-67
2021/11/18 01:19:17;;;;;;;;;;;;;;;;;;5063722;28;20330;-66
2021/11/18 01:21:48;;;;;;;;;;;;;;;;;;5059100;28;19924;-66
2021/11/18 01:24:18;;;;;;;;;;;;;;;;;;5058253;28;19928;-66
2021/11/18 01:26:49;;;;;;;;;;;;;;;;;;5062364;28;20407;-66
2021/11/18 01:29:18;;;;;;;;;;;;;;;;;;5070423;28;19924;-66
2021/11/18 01:31:46;;;;;;;;;;;;;;;;;;5068920;28;19925;-64
2021/11/18 01:34:13;;;;;;;;;;;;;;;;;;5078711;28;20252;-66
2021/11/18 01:36:43;;;;;;;;;;;;;;;;;;5073352;28;19932;-66
2021/11/18 01:39:12;;;;;;;;;;;;;;;;;;5078735;28;19936;-66
2021/11/18 01:41:44;;;;;;;;;;;;;;;;;;5070791;28;19925;-66
2021/11/18 01:44:11;;;;;;;;;;;;;;;;;;5054881;28;19929;-66
2021/11/18 01:46:41;;;;;;;;;;;;;;;;;;5064085;28;19937;-66
2021/11/18 01:49:12;;;;;;;;;;;;;;;;;;5078235;28;20631;-66
2021/11/18 01:51:42;;;;;;;;;;;;;;;;;;5063554;28;19932;-66
2021/11/18 01:54:09;;;;;;;;;;;;;;;;;;5047255;28;19925;-66
2021/11/18 01:56:40;;;;;;;;;;;;;;;;;;5061984;28;19932;-66
2021/11/18 01:59:25;;;;;;;;;;;;;;;;;;5081179;28;19931;-66
2021/11/18 02:01:55;;;;;;;;;;;;;;;;;;5069337;28;19928;-66
2021/11/18 02:04:27;;;;;;;;;;;;;;;;;;5053306;28;19928;-66
2021/11/18 02:06:54;;;;;;;;;;;;;;;;;;5045981;28;19924;-66
2021/11/18 02:09:21;;;;;;;;;;;;;;;;;;5068673;28;19981;-65
2021/11/18 02:11:54;;;;;;;;;;;;;;;;;;5066330;28;19924;-66
2021/11/18 02:14:23;;;;;;;;;;;;;;;;;;5071172;28;19928;-66
2021/11/18 02:16:53;;;;;;;;;;;;;;;;;;5061992;28;20358;-66
2021/11/18 02:19:21;;;;;;;;;;;;;;;;;;5079452;28;19924;-66
2021/11/18 02:21:52;;;;;;;;;;;;;;;;;;5064104;28;19932;-65
2021/11/18 02:24:23;;;;;;;;;;;;;;;;;;5068762;28;19933;-66
2021/11/18 02:26:52;;;;;;;;;;;;;;;;;;5068361;28;19935;-66
2021/11/18 02:29:21;;;;;;;;;;;;;;;;;;5071492;28;19925;-66
2021/11/18 02:31:50;;;;;;;;;;;;;;;;;;5068451;28;19932;-65
2021/11/18 02:34:22;;;;;;;;;;;;;;;;;;5067459;28;20575;-65
2021/11/18 02:36:53;;;;;;;;;;;;;;;;;;5066313;28;19977;-67
2021/11/18 02:39:24;;;;;;;;;;;;;;;;;;5074396;28;19933;-66
2021/11/18 02:41:53;;;;;;;;;;;;;;;;;;5072637;28;19932;-66
2021/11/18 02:44:22;;;;;;;;;;;;;;;;;;5074886;28;19951;-67
2021/11/18 02:46:53;;;;;;;;;;;;;;;;;;5066836;28;19932;-65
2021/11/18 02:49:22;;;;;;;;;;;;;;;;;;5072222;28;20367;-66
2021/11/18 02:51:53;;;;;;;;;;;;;;;;;;5061596;28;19947;-67
2021/11/18 02:54:23;;;;;;;;;;;;;;;;;;5068866;28;19924;-66
2021/11/18 02:56:55;;;;;;;;;;;;;;;;;;5056853;28;20261;-65
2021/11/18 02:59:26;;;;;;;;;;;;;;;;;;5070508;28;19936;-66
2021/11/18 03:01:57;;;;;;;;;;;;;;;;;;5060515;28;19932;-66
2021/11/18 03:04:27;;;;;;;;;;;;;;;;;;5068481;28;19929;-67
2021/11/18 03:06:54;;;;;;;;;;;;;;;;;;5079930;28;19935;-66
2021/11/18 03:09:25;;;;;;;;;;;;;;;;;;5064719;28;19928;-66
2021/11/18 03:11:53;;;;;;;;;;;;;;;;;;5055169;28;19948;-66
2021/11/18 03:14:25;;;;;;;;;;;;;;;;;;5065446;28;19928;-66
2021/11/18 03:16:54;;;;;;;;;;;;;;;;;;5072251;28;20545;-66
2021/11/18 03:19:38;;;;;;;;;;;;;;;;;;5065024;28;19940;-66
2021/11/18 03:22:07;;;;;;;;;;;;;;;;;;5056782;28;19924;-66
2021/11/18 03:24:34;;;;;;;;;;;;;;;;;;5063871;28;19924;-66
2021/11/18 03:27:01;;;;;;;;;;;;;;;;;;5072197;28;19924;-66
2021/11/18 03:29:28;;;;;;;;;;;;;;;;;;5067138;28;19938;-65
2021/11/18 03:31:57;;;;;;;;;;;;;;;;;;5069314;28;19935;-66
2021/11/18 03:34:29;;;;;;;;;;;;;;;;;;5065528;28;19932;-66
2021/11/18 03:36:57;;;;;;;;;;;;;;;;;;5070994;28;19936;-66
2021/11/18 03:39:28;;;;;;;;;;;;;;;;;;5067373;28;19977;-66
2021/11/18 03:41:59;;;;;;;;;;;;;;;;;;5066492;28;19931;-66
2021/11/18 03:44:29;;;;;;;;;;;;;;;;;;5059742;28;19925;-66
2021/11/18 03:46:56;;;;;;;;;;;;;;;;;;5062042;28;20227;-66
2021/11/18 03:49:25;;;;;;;;;;;;;;;;;;5066332;28;19936;-66
2021/11/18 03:51:53;;;;;;;;;;;;;;;;;;5066563;28;19931;-66
2021/11/18 03:54:21;;;;;;;;;;;;;;;;;;5057555;28;19931;-68
2021/11/18 03:56:51;;;;;;;;;;;;;;;;;;5054190;28;19932;-65
2021/11/18 03:59:20;;;;;;;;;;;;;;;;;;5052347;28;19925;-66
2021/11/18 04:01:53;;;;;;;;;;;;;;;;;;5063455;28;19925;-66
2021/11/18 04:04:22;;;;;;;;;;;;;;;;;;5080557;28;19924;-66
2021/11/18 04:06:50;;;;;;;;;;;;;;;;;;5065788;28;19932;-66
2021/11/18 04:09:19;;;;;;;;;;;;;;;;;;5076362;28;19924;-65
2021/11/18 04:11:50;;;;;;;;;;;;;;;;;;5067117;28;19928;-66
2021/11/18 04:14:20;;;;;;;;;;;;;;;;;;5073298;28;19924;-66
2021/11/18 04:16:49;;;;;;;;;;;;;;;;;;5066175;28;19924;-66
2021/11/18 04:19:18;;;;;;;;;;;;;;;;;;5074949;28;19928;-66
2021/11/18 04:21:45;;;;;;;;;;;;;;;;;;5060276;28;19973;-66
2021/11/18 04:24:14;;;;;;;;;;;;;;;;;;5074561;28;19931;-65
2021/11/18 04:26:47;;;;;;;;;;;;;;;;;;5061962;28;20413;-65
2021/11/18 04:29:16;;;;;;;;;;;;;;;;;;5075796;28;19963;-66
2021/11/18 04:31:44;;;;;;;;;;;;;;;;;;5064509;28;20452;-66
2021/11/18 04:34:12;;;;;;;;;;;;;;;;;;5070324;28;19947;-66
2021/11/18 04:36:45;;;;;;;;;;;;;;;;;;5064031;28;19928;-66
2021/11/18 04:39:19;;;;;;;;;;;;;;;;;;5074785;28;19924;-66
2021/11/18 04:41:51;;;;;;;;;;;;;;;;;;5064719;28;19925;-66
2021/11/18 04:44:20;;;;;;;;;;;;;;;;;;5072037;28;19943;-66
2021/11/18 04:46:53;;;;;;;;;;;;;;;;;;5054157;28;19932;-66
2021/11/18 04:49:33;;;;;;;;;;;;;;;;;;5068170;28;19924;-66
2021/11/18 04:52:02;;;;;;;;;;;;;;;;;;5069037;28;19928;-66
2021/11/18 04:54:30;;;;;;;;;;;;;;;;;;5077134;28;19925;-66
2021/11/18 04:57:01;;;;;;;;;;;;;;;;;;5052201;28;19925;-67
2021/11/18 04:59:30;;;;;;;;;;;;;;;;;;5065691;28;19992;-66
2021/11/18 05:02:00;;;;;;;;;;;;;;;;;;5073613;28;19930;-66
2021/11/18 05:04:34;;;;;;;;;;;;;;;;;;5071538;28;20270;-66
2021/11/18 05:07:03;;;;;;;;;;;;;;;;;;5056371;28;20769;-65
2021/11/18 05:09:34;;;;;;;;;;;;;;;;;;5061636;28;19929;-66
2021/11/18 05:12:05;;;;;;;;;;;;;;;;;;5063221;28;19965;-66
2021/11/18 05:14:33;;;;;;;;;;;;;;;;;;5071186;28;19939;-66
2021/11/18 05:17:03;;;;;;;;;;;;;;;;;;5068424;28;19924;-66
2021/11/18 05:19:31;;;;;;;;;;;;;;;;;;5068054;28;19940;-66
2021/11/18 05:21:59;;;;;;;;;;;;;;;;;;5055210;28;20395;-67
2021/11/18 05:24:29;;;;;;;;;;;;;;;;;;5067948;28;20365;-66
2021/11/18 05:26:58;;;;;;;;;;;;;;;;;;5069413;28;19928;-66
2021/11/18 05:29:28;;;;;;;;;;;;;;;;;;5067185;28;19932;-66
2021/11/18 05:31:56;;;;;;;;;;;;;;;;;;5046651;28;19930;-67
2021/11/18 05:34:26;;;;;;;;;;;;;;;;;;5065650;28;20448;-66
2021/11/18 05:36:53;;;;;;;;;;;;;;;;;;5055424;28;19928;-66
2021/11/18 05:39:22;;;;;;;;;;;;;;;;;;5070605;28;19978;-66
2021/11/18 05:41:53;;;;;;;;;;;;;;;;;;5062045;28;19931;-67
2021/11/18 05:44:21;;;;;;;;;;;;;;;;;;5069091;28;20346;-66
2021/11/18 05:46:50;;;;;;;;;;;;;;;;;;5048209;28;19935;-66
2021/11/18 05:49:20;;;;;;;;;;;;;;;;;;5069936;28;19939;-66
2021/11/18 05:51:48;;;;;;;;;;;;;;;;;;5068842;28;19924;-66
2021/11/18 05:54:17;;;;;;;;;;;;;;;;;;5067658;28;19928;-66
2021/11/18 05:56:47;;;;;;;;;;;;;;;;;;5077021;28;20394;-66
2021/11/18 05:59:17;;;;;;;;;;;;;;;;;;5063441;28;19928;-66
2021/11/18 06:01:53;;;;;;;;;;;;;;;;;;5059309;28;19925;-66
2021/11/18 06:04:23;;;;;;;;;;;;;;;;;;5063894;28;20305;-66
2021/11/18 06:06:52;;;;;;;;;;;;;;;;;;5055415;28;19931;-66
2021/11/18 06:09:20;;;;;;;;;;;;;;;;;;5060709;28;19935;-67
2021/11/18 06:11:50;;;;;;;;;;;;;;;;;;5064530;28;19925;-67
2021/11/18 06:14:19;;;;;;;;;;;;;;;;;;5064192;28;19925;-66
2021/11/18 06:16:48;;;;;;;;;;;;;;;;;;5067068;28;20353;-63
2021/11/18 06:19:17;;;;;;;;;;;;;;;;;;5071085;28;19938;-66
2021/11/18 06:21:45;;;;;;;;;;;;;;;;;;5058069;28;19928;-66
2021/11/18 06:24:14;;;;;;;;;;;;;;;;;;5067946;28;19928;-67
2021/11/18 06:26:42;;;;;;;;;;;;;;;;;;5064380;28;20348;-66
2021/11/18 06:29:20;;;;;;;;;;;;;;;;;;5067503;28;19942;-66
2021/11/18 06:31:49;;;;;;;;;;;;;;;;;;5067653;28;19925;-66
2021/11/18 06:34:18;;;;;;;;;;;;;;;;;;5062180;28;19949;-66
2021/11/18 06:36:46;;;;;;;;;;;;;;;;;;5064086;28;20369;-66
2021/11/18 06:39:18;;;;;;;;;;;;;;;;;;5060615;28;20401;-66
2021/11/18 06:41:48;;;;;;;;;;;;;;;;;;5059480;28;19977;-66
2021/11/18 06:44:17;;;;;;;;;;;;;;;;;;5066455;28;19925;-66
2021/11/18 06:46:46;;;;;;;;;;;;;;;;;;5061507;28;19997;-67
2021/11/18 06:49:15;;;;;;;;;;;;;;;;;;5068363;28;19924;-66
2021/11/18 06:51:47;;;;;;;;;;;;;;;;;;5073503;28;20420;-70
2021/11/18 06:54:17;;;;;;;;;;;;;;;;;;5077042;28;20265;-70
2021/11/18 06:56:48;;;;;;;;;;;;;;;;;;5063006;28;19925;-69
2021/11/18 06:59:20;;;;;;;;;;;;;;;;;;5063229;28;19933;-70
2021/11/18 07:01:55;;;;;;;;;;;;;;;;;;5064684;28;19958;-70
2021/11/18 07:04:26;;;;;;;;;;;;;;;;;;5070111;28;19925;-70
2021/11/18 07:06:57;;;;;;;;;;;;;;;;;;5065148;28;20363;-69
2021/11/18 07:09:26;;;;;;;;;;;;;;;;;;5069182;28;20269;-69
2021/11/18 07:11:56;;;;;;;;;;;;;;;;;;5065105;28;19929;-69
2021/11/18 07:14:27;;;;;;;;;;;;;;;;;;5072738;28;19924;-70
2021/11/18 07:16:59;;;;;;;;;;;;;;;;;;5059192;28;20345;-70
2021/11/18 07:19:32;;;;;;;;;;;;;;;;;;5071035;28;20839;-70
2021/11/18 07:22:03;;;;;;;;;;;;;;;;;;5078329;28;20510;-70
2021/11/18 07:24:42;;;;;;;;;;;;;;;;;;5083783;28;19934;-70
2021/11/18 07:27:11;;;;;;;;;;;;;;;;;;5083632;28;20019;-69
2021/11/18 07:29:40;;;;;;;;;;;;;;;;;;5075020;28;19932;-69
2021/11/18 07:32:11;;;;;;;;;;;;;;;;;;5074152;28;19925;-71
2021/11/18 07:34:40;;;;;;;;;;;;;;;;;;5063698;28;19925;-71
2021/11/18 07:37:10;;;;;;;;;;;;;;;;;;5059171;28;19929;-70
2021/11/18 07:39:40;;;;;;;;;;;;;;;;;;5074510;28;19940;-70
2021/11/18 07:42:12;;;;;;;;;;;;;;;;;;5063227;28;19925;-70
2021/11/18 07:44:40;;;;;;;;;;;;;;;;;;5074955;28;19932;-69
2021/11/18 07:47:07;;;;;;;;;;;;;;;;;;5056232;28;19936;-72
2021/11/18 07:49:35;;;;;;;;;;;;;;;;;;5063232;28;19932;-73
2021/11/18 07:52:05;;;;;;;;;;;;;;;;;;5062854;28;19925;-73
2021/11/18 07:54:35;;;;;;;;;;;;;;;;;;5080946;28;19928;-73
2021/11/18 07:57:03;;;;;;;;;;;;;;;;;;5054609;28;19933;-66
2021/11/18 07:59:32;;;;;;;;;;;;;;;;;;5059151;28;19924;-66
2021/11/18 08:01:59;;;;;;;12.45;5.70;;;;;;;;;;5064272;28;20390;-69
2021/11/18 08:04:30;;;;;;;;;;;;;;;;;;5080601;28;20473;-71
2021/11/18 08:06:59;;;;;;;;;;;;;;;;;;5066371;28;19993;-69
2021/11/18 08:09:30;;;;;;;;;;;;;;;;;;5061824;28;20292;-68
2021/11/18 08:12:01;;;;;;;;;;;;;;;;;;5065445;28;20384;-70
2021/11/18 08:14:34;;;;;;;;;;;;;;;;;;5064816;28;19977;-69
2021/11/18 08:17:04;;;;;;;;;;;;;;;;;;5058244;28;19929;-70
2021/11/18 08:19:33;;;;;;;;;;;;;;;;;;5069725;28;19973;-70
2021/11/18 08:22:01;;;;;;;;;;;;;;;;;;5058262;28;19928;-69
2021/11/18 08:24:29;;;;;;;;;;;;;;;;;;5028006;28;19990;-71
2021/11/18 08:27:00;;;;;;;;;;;;;;;;;;5060383;28;20345;-70
2021/11/18 08:29:31;;;;;;;;;;;;;;;;;;5084626;28;20417;-72
2021/11/18 08:32:01;;;;;;;;;;;;;;;;;;5063299;28;19935;-72
2021/11/18 08:34:29;;;;;;;;;;;;;;;;;;5049194;28;19939;-73
2021/11/18 08:36:59;;;;;;;;;;;;;;;;;;5056996;28;19929;-73
2021/11/18 08:39:28;;;;;;;;;;;;;;;;;;5077460;28;19936;-67
2021/11/18 08:41:58;;;;;;;;;;;;;;;;;;5065437;28;19932;-71
2021/11/18 08:44:28;;;;;;;;;;;;;;;;;;5054005;28;19929;-71
2021/11/18 08:46:59;;;;;;;;;;;;;;;;;;5041914;28;19928;-69
2021/11/18 08:49:26;;;;;;;;;;;;;;;;;;5054438;28;19933;-70
2021/11/18 08:51:56;;;;;;;;;;;;;;;;;;5077157;28;19928;-69
2021/11/18 08:54:26;;;;;;;;;;;;;;;;;;5052518;28;20345;-71
2021/11/18 08:56:55;;;;;;;;;;;;;;;;;;5054437;28;19932;-71
2021/11/18 08:59:26;;;;;;;;;;;;;;;;;;5069370;28;19939;-74
2021/11/18 09:01:56;;;;;;;;;;;;;;;;;;5063998;28;20358;-72
2021/11/18 09:04:27;;;;;;;;;;;;;;;;;;5056095;28;19948;-69
2021/11/18 09:06:58;;;;;;;;;;;;;;;;;;5055169;28;19977;-69
2021/11/18 09:09:27;;;;;;;;;;;;;;;;;;5057160;28;19929;-68
2021/11/18 09:11:58;;;;;;;;;;;;;;;;;;5073581;28;19935;-69
2021/11/18 09:14:29;;;;;;;;;;;;;;;;;;5065770;28;19924;-70
2021/11/18 09:16:57;;;;;;;;;;;;;;;;;;5058776;28;20006;-69
2021/11/18 09:19:28;;;;;;;;;;;;;;;;;;5059013;28;20262;-69
2021/11/18 09:21:58;;;;;;;;;;;;;;;;;;5054218;28;20069;-69
2021/11/18 09:24:28;;;;;;;;;;;;;;;;;;5059928;28;20283;-69
2021/11/18 09:26:55;;;;;;;;;;;;;;;;;;5044377;28;19928;-68
2021/11/18 09:29:29;;;;;;;;;;;;;;;;;;5061484;28;20020;-67
2021/11/18 09:31:59;;;;;;;;;;;;;;;;;;5055519;28;19936;-67
2021/11/18 09:34:26;;;;;;;;;;;;;;;;;;5056973;28;19924;-69
2021/11/18 09:36:54;;;;;;;;;;;;;;;;;;5049934;28;19924;-70
2021/11/18 09:39:24;;;;;;;;;;;;;;;;;;5061987;28;19935;-70
2021/11/18 09:42:05;;;;;;;;;;;;;;;;;;5055747;28;20683;-70
2021/11/18 09:44:33;;;;;;;;;;;;;;;;;;5064903;28;19928;-70
2021/11/18 09:47:02;;;;;;;;;;;;;;;;;;5047208;28;19931;-71
2021/11/18 09:49:31;;;;;;;;;;;;;;;;;;5061507;28;19966;-71
2021/11/18 09:52:02;;;;;;;;;;;;;;;;;;5058146;28;19925;-69
2021/11/18 09:54:32;;;;;;;;;;;;;;;;;;5067998;28;19928;-71
2021/11/18 09:57:01;;;;;;;;;;;;;;;;;;5056562;28;20499;-68
2021/11/18 09:59:30;;;;;;;;;;;;;;;;;;5067316;28;19958;-70
2021/11/18 10:02:01;;;;;;;;;;;;;;;;;;5060337;28;19932;-69
2021/11/18 10:04:32;;;;;;;;;;;;;;;;;;5065145;28;19929;-68
2021/11/18 10:07:03;;;;;;;;;;;;;;;;;;5070719;28;20191;-71
2021/11/18 10:09:37;;;;;;;;;;;;;;;;;;5064374;28;19925;-67
2021/11/18 10:12:10;;;;;;;;;;;;;;;;;;5069679;28;19932;-68
2021/11/18 10:14:39;;;;;;;;;;;;;;;;;;5066102;28;19925;-68
2021/11/18 10:17:08;;;;;;;;;;;;;;;;;;5066909;28;20007;-69
2021/11/18 10:19:39;;;;;;;;;;;;;;;;;;5067364;28;19932;-69
2021/11/18 10:22:15;;;;;;;;;;;;;;;;;;5054581;28;19939;-69
2021/11/18 10:24:57;;;;;;;;;;;;;;;;;;5063852;28;19935;-71
2021/11/18 10:27:28;;;;;;;;;;;;;;;;;;5059949;28;20474;-70
2021/11/18 10:29:58;;;;;;;;;;;;;;;;;;5065311;28;19932;-69
2021/11/18 10:32:30;;;;;;;;;;;;;;;;;;5057689;28;19935;-68
2021/11/18 10:35:05;;;;;;;;;;;;;;;;;;5056130;28;19924;-68
2021/11/18 10:37:36;;;;;;;;;;;;;;;;;;5082857;28;19924;-68
2021/11/18 10:40:04;;;;;;;;;;;;;;;;;;5064849;28;19933;-69
2021/11/18 10:42:35;;;;;;;;;;;;;;;;;;5062905;28;19925;-68
2021/11/18 10:45:03;;;;;;;;;;;;;;;;;;5063511;28;20364;-70
2021/11/18 10:47:36;;;;;;;;;;;;;;;;;;5083291;28;20309;-65
2021/11/18 10:50:08;;;;;;;;;;;;;;;;;;5068974;28;19924;-65
2021/11/18 10:52:41;;;;;;;;;;;;;;;;;;5042951;28;19935;-65
2021/11/18 10:55:10;;;;;;;;;;;;;;;;;;5065476;28;20285;-67
2021/11/18 10:57:42;;;;;;;;;;;;;;;;;;5059079;28;20027;-67
2021/11/18 11:00:11;;;;;;;;;;;;;;;;;;5068772;28;19924;-67
2021/11/18 11:02:41;;;;;;;;;;;;;;;;;;5065455;28;19967;-67
2021/11/18 11:05:10;;;;;;;;;;;;;;;;;;5081607;28;19931;-68
2021/11/18 11:07:39;;;;;;;;;;;;;;;;;;5059956;28;19957;-71
2021/11/18 11:10:13;;;;;;;;;;;;;;;;;;5065026;28;19924;-71
2021/11/18 11:12:41;;;;;;;;;;;;;;;;;;5058901;28;19934;-69
2021/11/18 11:15:09;;;;;;;;;;;;;;;;;;5069853;28;19935;-72
2021/11/18 11:17:38;;;;;;;;;;;;;;;;;;5068403;28;19943;-73
2021/11/18 11:20:07;;;;;;;;;;;;;;;;;;5067574;28;19968;-73
2021/11/18 11:22:35;;;;;;;;;;;;;;;;;;5056807;28;20312;-73
2021/11/18 11:25:04;;;;;;;;;;;;;;;;;;5062063;28;19934;-74
2021/11/18 11:27:33;;;;;;;;;;;;;;;;;;5062480;28;20041;-71
2021/11/18 11:30:03;;;;;;;;;;;;;;;;;;5053507;28;19925;-72
2021/11/18 11:32:36;;;;;;;;;;;;;;;;;;5061243;28;19935;-76
2021/11/18 11:35:08;;;;;;;;;;;;;;;;;;5065402;28;19936;-72
2021/11/18 11:37:37;;;;;;;;;;;;;;;;;;5078698;28;19947;-71
2021/11/18 11:40:04;;;;;;;;;;;;;;;;;;5069745;28;19925;-72
2021/11/18 11:42:35;;;;;;;;;;;;;;;;;;5057868;28;19935;-72
2021/11/18 11:45:06;;;;;;;;;;;;;;;;;;5059391;28;19928;-71
2021/11/18 11:47:33;;;;;;;;;;;;;;;;;;5065257;28;19933;-72
2021/11/18 11:50:05;;;;;;;;;;;;;;;;;;5063178;28;20005;-73
2021/11/18 11:52:33;;;;;;;;;;;;;;;;;;5067059;28;19996;-68
2021/11/18 11:55:00;;;;;;;;;;;;;;;;;;5055350;28;19924;-67
2021/11/18 11:57:30;;;;;;;;;;;;;;;;;;5066819;28;19924;-76
2021/11/18 12:00:01;;;;;;;;;;;;;;;;;;5071526;28;20238;-77
2021/11/18 12:02:30;;;;;;;;;;;;;;;;;;5034322;28;21389;-74
2021/11/18 12:04:58;;;;;;;;;;;;;;;;;;5072220;28;19924;-74
2021/11/18 12:07:26;;;;;;;;;;;;;;;;;;5064582;28;19924;-72
2021/11/18 12:09:55;;;;;;;;;;;;;;;;;;5070222;28;20426;-73
2021/11/18 12:12:22;;;;;;;;;;;;;;;;;;5048073;28;19935;-75
2021/11/18 12:14:53;;;;;;;;;;;;;;;;;;5071790;28;19925;-74
2021/11/18 12:17:23;;;;;;;;;;;;;;;;;;5059860;28;19931;-76
2021/11/18 12:19:55;;;;;;;;;;;;;;;;;;5056639;28;19925;-73
2021/11/18 12:22:27;;;;;;;;;;;;;;;;;;5059658;28;19939;-72
2021/11/18 12:24:56;;;;;;;;;;;;;;;;;;5043106;28;19985;-71
2021/11/18 12:27:48;;;;;;;;;;;;;;;;;;4956499;28;20020;-73
2021/11/18 12:30:20;;;;;;;;;;;;;;;;;;4985687;28;19940;-74
2021/11/18 12:32:48;;;;;;;;;;;;;;;;;;4983102;28;20399;-71
2021/11/18 12:35:18;;;;;;;;;;;;;;;;;;4985068;28;20269;-72
2021/11/18 12:37:49;;;;;;;;;;;;;;;;;;4986969;28;19933;-72
2021/11/18 12:40:19;;;;;;;;;;;;;;;;;;4998975;28;19936;-72
2021/11/18 12:42:51;;;;;;;;;;;;;;;;;;4986131;28;19926;-71
2021/11/18 12:45:18;;;;;;;;;;;;;;;;;;4981872;28;19926;-73
2021/11/18 12:47:48;;;;;;;;;;;;;;;;;;4986277;28;19974;-73
2021/11/18 12:50:17;;;;;;;;;;;;;;;;;;4984984;28;19926;-72
2021/11/18 12:52:46;;;;;;;;;;;;;;;;;;4983281;28;20505;-74
2021/11/18 12:55:16;;;;;;;;;;;;;;;;;;4968006;28;20334;-72
2021/11/18 12:58:02;;;;;;;;;;;;;;;;;;4980798;28;19926;-76
2021/11/18 13:00:32;;;;;;;;;;;;;;;;;;4984921;28;19930;-73
2021/11/18 13:03:00;;;;;;;;;;;;;;;;;;4982842;28;19986;-70
2021/11/18 13:05:30;;;;;;;;;;;;;;;;;;5024999;28;19925;-70
2021/11/18 13:08:07;;;;;;;;;;;;;;;;;;5060430;28;19932;-70
2021/11/18 13:10:52;;;;;;;;;;;;;;;;;;5060879;28;19924;-71
2021/11/18 13:13:22;;;;;;;;;;;;;;;;;;5061663;28;19954;-71
2021/11/18 13:15:50;;;;;;;;;;;;;;;;;;5064702;28;19931;-68
2021/11/18 13:18:19;;;;;;;;;;;;;;;;;;5062861;28;19925;-68
2021/11/18 13:20:46;;;;;;;;;;;;;;;;;;5050054;28;19925;-70
2021/11/18 13:23:13;;;;;;;;;;;;;;;;;;5061829;28;19924;-69
2021/11/18 13:25:46;;;;;;;;;;;;;;;;;;5040539;28;19925;-70
2021/11/18 13:28:15;;;;;;;;;;;;;;;;;;5069148;28;19940;-71
2021/11/18 13:30:42;;;;;;;;;;;;;;;;;;5067146;28;19961;-71
2021/11/18 13:33:11;;;;;;;;;;;;;;;;;;5065027;28;19935;-69
2021/11/18 13:35:38;;;;;;;;;;;;;;;;;;5067639;28;19925;-69
2021/11/18 13:38:07;;;;;;;;;;;;;;;;;;5071446;28;19928;-69
2021/11/18 13:40:36;;;;;;;;;;;;;;;;;;5068820;28;19928;-69
2021/11/18 13:43:06;;;;;;;;;;;;;;;;;;5066433;28;20265;-70
2021/11/18 13:45:36;;;;;;;;;;;;;;;;;;5066377;28;20011;-70
2021/11/18 13:48:07;;;;;;;;;;;;;;;;;;5078895;28;19932;-74
2021/11/18 13:50:38;;;;;;;;;;;;;;;;;;5066928;28;19969;-73
2021/11/18 13:53:14;;;;;;;;;;;;;;;;;;5068932;28;19936;-74
2021/11/18 13:55:43;;;;;;;;;;;;;;;;;;5065611;28;19935;-69
2021/11/18 13:58:12;;;;;;;;;;;;;;;;;;5081332;28;19935;-71
2021/11/18 14:00:56;;;;;;;;;;;;;;;;;;5063667;28;19932;-69
2021/11/18 14:03:24;;;;;;;;;;;;;;;;;;5062498;28;19924;-72
2021/11/18 14:05:56;;;;;;;;;;;;;;;;;;5065609;28;19924;-69
2021/11/18 14:08:27;;;;;;;;;;;;;;;;;;5037266;28;19928;-71
2021/11/18 14:10:55;;;;;;;;;;;;;;;;;;5046166;28;19928;-71
2021/11/18 14:13:26;;;;;;;;;;;;;;;;;;5071564;28;19981;-69
2021/11/18 14:15:55;;;;;;;;;;;;;;;;;;5069611;28;19936;-69
2021/11/18 14:18:26;;;;;;;;;;;;;;;;;;5052248;28;19933;-71
2021/11/18 14:20:56;;;;;;;;;;;;;;;;;;5059907;28;20284;-71
2021/11/18 14:23:23;;;;;;;;;;;;;;;;;;5075345;28;19924;-69
2021/11/18 14:25:52;;;;;;;;;;;;;;;;;;5067962;28;19925;-69
2021/11/18 14:28:21;;;;;;;;;;;;;;;;;;5071041;28;20317;-68
2021/11/18 14:30:50;;;;;;;;;;;;;;;;;;5065179;28;19929;-69
2021/11/18 14:33:20;;;;;;;;;;;;;;;;;;5073249;28;20309;-69
2021/11/18 14:35:47;;;;;;;;;;;;;;;;;;5063168;28;19924;-69
2021/11/18 14:38:18;;;;;;;;;;;;;;;;;;5058332;28;19958;-68
2021/11/18 14:41:00;;;;;;;;;;;;;;;;;;5060585;28;20353;-67
2021/11/18 14:43:30;;;;;;;;;;;;;;;;;;5082076;28;20004;-69
2021/11/18 14:46:00;;;;;;;;;;;;;;;;;;5068727;28;20420;-70
2021/11/18 14:48:29;;;;;;;;;;;;;;;;;;5055627;28;19933;-70
2021/11/18 14:51:01;;;;;;;;;;;;;;;;;;5060479;28;20023;-69
2021/11/18 14:53:29;;;;;;;;;;;;;;;;;;5081247;28;19959;-69
2021/11/18 14:55:57;;;;;;;;;;;;;;;;;;5072560;28;20250;-70
2021/11/18 14:58:27;;;;;;;;;;;;;;;;;;5055102;28;19936;-69
2021/11/18 15:00:57;;;;;;;;;;;;;;;;;;5057165;28;19929;-69
2021/11/18 15:03:28;;;;;;;;;;;;;;;;;;5066584;28;19993;-71
2021/11/18 15:05:55;;;;;;;;;;;;;;;;;;5065121;28;19928;-69
2021/11/18 15:08:25;;;;;;;;;;;;;;;;;;5065775;28;19981;-70
2021/11/18 15:10:57;;;;;;;;;;;;;;;;;;5061276;28;19928;-69
2021/11/18 15:13:27;;;;;;;;;;;;;;;;;;5067940;28;19935;-70
2021/11/18 15:15:59;;;;;;;;;;;;;;;;;;5072966;28;20473;-69
2021/11/18 15:18:30;;;;;;;;;;;;;;;;;;5064236;28;20363;-67
2021/11/18 15:21:00;;;;;;;;;;;;;;;;;;5061337;28;19992;-69
2021/11/18 15:23:29;;;;;;;;;;;;;;;;;;5066116;28;19932;-70
2021/11/18 15:25:59;;;;;;;;;;;;;;;;;;5064267;28;19960;-73
2021/11/18 15:28:29;;;;;;;;;;;;;;;;;;5061825;28;19932;-71
2021/11/18 15:30:56;;;;;;;;;;;;;;;;;;5045724;28;19928;-70
2021/11/18 15:33:28;;;;;;;;;;;;;;;;;;5056620;28;20259;-70
2021/11/18 15:35:55;;;;;;;;;;;;;;;;;;5065258;28;19932;-69
2021/11/18 15:38:38;;;;;;;;;;;;;;;;;;5065266;28;20572;-70
2021/11/18 15:41:07;;;;;;;;;;;;;;;;;;5079179;28;20170;-71
2021/11/18 15:43:40;;;;;;;;;;;;;;;;;;5062069;28;20510;-72
2021/11/18 15:46:10;;;;;;;;;;;;;;;;;;5066390;28;19925;-70
2021/11/18 15:48:38;;;;;;;;;;;;;;;;;;5065387;28;19932;-69
2021/11/18 15:51:08;;;;;;;;;;;;;;;;;;5065504;28;19925;-70
2021/11/18 15:53:38;;;;;;;;;;;;;;;;;;5065121;28;19932;-72
2021/11/18 15:56:05;;;;;;;;;;;;;;;;;;5066661;28;19978;-68
2021/11/18 15:58:34;;;;;;;;;;;;;;;;;;5059717;28;19939;-70
2021/11/18 16:01:07;;;;;;;;;;;;;;;;;;5051569;28;19935;-71
2021/11/18 16:03:39;;;;;;;;;;;;;;;;;;5061860;28;19935;-71
2021/11/18 16:06:11;;;;;;;;;;;;;;;;;;5068458;28;19951;-69
2021/11/18 16:08:41;;;;;;;;;;;;;;;;;;5063806;28;19929;-69
2021/11/18 16:11:10;;;;;;;;;;;;;;;;;;5049325;28;20419;-72
2021/11/18 16:13:39;;;;;;;;;;;;;;;;;;5066169;28;20249;-71
2021/11/18 16:16:11;;;;;;;;;;;;;;;;;;5066696;28;19937;-66
2021/11/18 16:18:47;;;;;;;;;;;;;;;;;;5060500;28;19928;-69
2021/11/18 16:21:17;;;;;;;;;;;;;;;;;;5063018;28;20029;-71
2021/11/18 16:23:48;;;;;;;;;;;;;;;;;;5048796;28;20434;-73
2021/11/18 16:26:15;;;;;;;;;;;;;;;;;;5071028;28;19924;-69
2021/11/18 16:28:45;;;;;;;;;;;;;;;;;;5063607;28;19928;-69
2021/11/18 16:31:21;;;;;;;;;;;;;;;;;;5044887;28;19925;-69
2021/11/18 16:33:56;;;;;;;;;;;;;;;;;;5060424;28;20118;-70
2021/11/18 16:36:27;;;;;;;;;;;;;;;;;;5071760;28;19954;-69
2021/11/18 16:38:54;;;;;;;;;;;;;;;;;;5041976;28;19924;-69
2021/11/18 16:41:26;;;;;;;;;;;;;;;;;;5065924;28;19980;-70
2021/11/18 16:44:03;;;;;;;;;;;;;;;;;;5065771;28;19928;-69
2021/11/18 16:46:36;;;;;;;;;;;;;;;;;;5069529;28;20338;-69
2021/11/18 16:49:06;;;;;;;;;;;;;;;;;;5059720;28;19925;-69
2021/11/18 16:51:36;;;;;;;;;;;;;;;;;;5065912;28;19928;-70
2021/11/18 16:54:07;;;;;;;;;;;;;;;;;;5064609;28;19932;-70
2021/11/18 16:56:34;;;;;;;;;;;;;;;;;;5073378;28;19939;-69
2021/11/18 16:59:02;;;;;;;;;;;;;;;;;;5057659;28;19928;-69
2021/11/18 17:01:30;;;;;;;;;;;;;;;;;;5086920;28;20028;-70
2021/11/18 17:04:00;;;;;;;;;;;;;;;;;;5067609;28;19928;-65
2021/11/18 17:06:30;;;;;;;;;;;;;;;;;;5072486;28;19932;-66
2021/11/18 17:09:00;;;;;;;;;;;;;;;;;;5053826;28;19932;-66
2021/11/18 17:11:30;;;;;;;;;;;;;;;;;;5067770;28;19966;-66
2021/11/18 17:14:02;;;;;;;;;;;;;;;;;;5070969;28;19932;-66
2021/11/18 17:16:32;;;;;;;;;;;;;;;;;;5049603;28;19932;-66
2021/11/18 17:19:01;;;;;;;;;;;;;;;;;;5066365;28;19924;-66
2021/11/18 17:21:30;;;;;;;;;;;;;;;;;;5068582;28;19957;-66
2021/11/18 17:23:58;;;;;;;;;;;;;;;;;;5068082;28;19939;-66
2021/11/18 17:26:28;;;;;;;;;;;;;;;;;;5063870;28;19985;-66
2021/11/18 17:28:58;;;;;;;;;;;;;;;;;;5063208;28;19985;-66